sensor_id;sensor_type;location;lat;lon;timestamp;P1;durP1;ratioP1;P2;durP2;ratioP2
20896;SDS011;10608;42.600;23.398;2023-06-26T00:02:08;174.73;;;166.77;;
20896;SDS011;10608;42.600;23.398;2023-06-26T00:04:34;174.97;;;167.10;;
20896;SDS011;10608;42.600;23.398;2023-06-26T00:07:00;177.60;;;169.53;;
20896;SDS011;10608;42.600;23.398;2023-06-26T00:09:26;175.53;;;167.37;;
20896;SDS011;10608;42.600;23.398;2023-06-26T00:11:51;168.80;;;161.20;;
20896;SDS011;10608;42.600;23.398;2023-06-26T00:14:17;181.50;;;173.13;;
20896;SDS011;10608;42.600;23.398;2023-06-26T00:16:45;169.80;;;161.73;;
20896;SDS011;10608;42.600;23.398;2023-06-26T00:19:11;175.77;;;167.77;;
20896;SDS011;10608;42.600;23.398;2023-06-26T00:21:36;177.57;;;168.97;;
20896;SDS011;10608;42.600;23.398;2023-06-26T00:24:01;196.67;;;187.43;;
20896;SDS011;10608;42.600;23.398;2023-06-26T00:26:26;185.43;;;176.70;;
20896;SDS011;10608;42.600;23.398;2023-06-26T00:28:52;202.53;;;193.40;;
20896;SDS011;10608;42.600;23.398;2023-06-26T00:31:17;207.33;;;198.07;;
20896;SDS011;10608;42.600;23.398;2023-06-26T00:33:42;198.50;;;189.57;;
20896;SDS011;10608;42.600;23.398;2023-06-26T00:36:07;215.07;;;205.40;;
20896;SDS011;10608;42.600;23.398;2023-06-26T00:38:32;228.63;;;218.60;;
20896;SDS011;10608;42.600;23.398;2023-06-26T00:40:58;191.93;;;183.37;;
20896;SDS011;10608;42.600;23.398;2023-06-26T00:43:23;172.87;;;164.97;;
20896;SDS011;10608;42.600;23.398;2023-06-26T00:45:48;160.83;;;153.27;;
20896;SDS011;10608;42.600;23.398;2023-06-26T00:48:13;169.33;;;161.47;;
20896;SDS011;10608;42.600;23.398;2023-06-26T00:50:40;170.07;;;162.10;;
20896;SDS011;10608;42.600;23.398;2023-06-26T00:53:05;167.30;;;159.10;;
20896;SDS011;10608;42.600;23.398;2023-06-26T00:55:31;163.27;;;155.57;;
20896;SDS011;10608;42.600;23.398;2023-06-26T00:57:56;189.33;;;180.67;;
20896;SDS011;10608;42.600;23.398;2023-06-26T01:00:21;196.80;;;187.77;;
20896;SDS011;10608;42.600;23.398;2023-06-26T01:02:47;203.60;;;194.70;;
20896;SDS011;10608;42.600;23.398;2023-06-26T01:05:12;186.23;;;178.03;;
20896;SDS011;10608;42.600;23.398;2023-06-26T01:07:46;186.33;;;178.07;;
20896;SDS011;10608;42.600;23.398;2023-06-26T01:10:11;198.17;;;189.17;;
20896;SDS011;10608;42.600;23.398;2023-06-26T01:12:37;171.93;;;164.30;;
20896;SDS011;10608;42.600;23.398;2023-06-26T01:15:03;181.97;;;173.90;;
20896;SDS011;10608;42.600;23.398;2023-06-26T01:17:29;186.97;;;178.80;;
20896;SDS011;10608;42.600;23.398;2023-06-26T01:19:58;182.40;;;174.40;;
20896;SDS011;10608;42.600;23.398;2023-06-26T01:27:50;178.20;;;170.40;;
20896;SDS011;10608;42.600;23.398;2023-06-26T01:30:17;192.87;;;184.20;;
20896;SDS011;10608;42.600;23.398;2023-06-26T01:32:44;172.63;;;165.00;;
20896;SDS011;10608;42.600;23.398;2023-06-26T01:35:10;158.20;;;151.00;;
20896;SDS011;10608;42.600;23.398;2023-06-26T01:37:36;155.57;;;148.33;;
20896;SDS011;10608;42.600;23.398;2023-06-26T01:40:01;162.73;;;155.10;;
20896;SDS011;10608;42.600;23.398;2023-06-26T01:42:26;169.50;;;161.70;;
20896;SDS011;10608;42.600;23.398;2023-06-26T01:44:52;160.20;;;152.70;;
20896;SDS011;10608;42.600;23.398;2023-06-26T01:47:21;155.43;;;148.47;;
20896;SDS011;10608;42.600;23.398;2023-06-26T01:49:56;158.73;;;151.43;;
20896;SDS011;10608;42.600;23.398;2023-06-26T01:57:26;145.00;;;138.23;;
20896;SDS011;10608;42.600;23.398;2023-06-26T01:59:53;146.90;;;140.07;;
20896;SDS011;10608;42.600;23.398;2023-06-26T02:02:18;176.03;;;167.93;;
20896;SDS011;10608;42.600;23.398;2023-06-26T02:04:44;199.37;;;189.80;;
20896;SDS011;10608;42.600;23.398;2023-06-26T02:07:09;209.10;;;199.40;;
20896;SDS011;10608;42.600;23.398;2023-06-26T02:09:34;182.67;;;173.97;;
20896;SDS011;10608;42.600;23.398;2023-06-26T02:12:00;172.60;;;164.57;;
20896;SDS011;10608;42.600;23.398;2023-06-26T02:14:25;201.00;;;191.80;;
20896;SDS011;10608;42.600;23.398;2023-06-26T02:16:50;199.03;;;189.87;;
20896;SDS011;10608;42.600;23.398;2023-06-26T02:19:15;163.27;;;155.43;;
20896;SDS011;10608;42.600;23.398;2023-06-26T02:21:47;171.57;;;163.63;;
20896;SDS011;10608;42.600;23.398;2023-06-26T02:24:13;171.30;;;163.63;;
20896;SDS011;10608;42.600;23.398;2023-06-26T02:26:38;154.37;;;147.40;;
20896;SDS011;10608;42.600;23.398;2023-06-26T02:29:03;170.27;;;162.43;;
20896;SDS011;10608;42.600;23.398;2023-06-26T02:31:28;180.83;;;172.30;;
20896;SDS011;10608;42.600;23.398;2023-06-26T02:33:53;194.57;;;185.93;;
20896;SDS011;10608;42.600;23.398;2023-06-26T02:36:19;151.70;;;144.27;;
20896;SDS011;10608;42.600;23.398;2023-06-26T02:38:44;158.57;;;151.17;;
20896;SDS011;10608;42.600;23.398;2023-06-26T02:41:09;193.27;;;184.17;;
20896;SDS011;10608;42.600;23.398;2023-06-26T02:43:34;199.33;;;190.10;;
20896;SDS011;10608;42.600;23.398;2023-06-26T02:46:00;190.90;;;181.90;;
20896;SDS011;10608;42.600;23.398;2023-06-26T02:48:25;180.23;;;171.33;;
20896;SDS011;10608;42.600;23.398;2023-06-26T02:50:50;183.83;;;175.10;;
20896;SDS011;10608;42.600;23.398;2023-06-26T02:53:15;187.20;;;178.40;;
20896;SDS011;10608;42.600;23.398;2023-06-26T02:55:41;195.90;;;186.20;;
20896;SDS011;10608;42.600;23.398;2023-06-26T02:58:06;217.77;;;207.23;;
20896;SDS011;10608;42.600;23.398;2023-06-26T03:00:31;228.43;;;217.93;;
20896;SDS011;10608;42.600;23.398;2023-06-26T03:02:56;172.67;;;164.37;;
20896;SDS011;10608;42.600;23.398;2023-06-26T03:05:22;135.57;;;128.87;;
20896;SDS011;10608;42.600;23.398;2023-06-26T03:07:48;127.53;;;121.33;;
20896;SDS011;10608;42.600;23.398;2023-06-26T03:10:14;129.90;;;123.67;;
20896;SDS011;10608;42.600;23.398;2023-06-26T03:12:39;123.50;;;117.40;;
20896;SDS011;10608;42.600;23.398;2023-06-26T03:15:04;127.10;;;121.10;;
20896;SDS011;10608;42.600;23.398;2023-06-26T03:17:30;130.20;;;124.07;;
20896;SDS011;10608;42.600;23.398;2023-06-26T03:19:55;129.70;;;123.70;;
20896;SDS011;10608;42.600;23.398;2023-06-26T03:22:20;137.57;;;131.40;;
20896;SDS011;10608;42.600;23.398;2023-06-26T03:24:45;138.30;;;131.90;;
20896;SDS011;10608;42.600;23.398;2023-06-26T03:27:10;143.63;;;136.77;;
20896;SDS011;10608;42.600;23.398;2023-06-26T03:29:36;156.20;;;148.93;;
20896;SDS011;10608;42.600;23.398;2023-06-26T03:32:02;162.30;;;154.33;;
20896;SDS011;10608;42.600;23.398;2023-06-26T03:34:27;188.47;;;179.37;;
20896;SDS011;10608;42.600;23.398;2023-06-26T03:36:52;160.47;;;152.97;;
20896;SDS011;10608;42.600;23.398;2023-06-26T03:39:17;140.87;;;134.20;;
20896;SDS011;10608;42.600;23.398;2023-06-26T03:41:43;154.43;;;147.43;;
20896;SDS011;10608;42.600;23.398;2023-06-26T03:44:08;147.43;;;140.57;;
20896;SDS011;10608;42.600;23.398;2023-06-26T03:46:33;124.50;;;118.63;;
20896;SDS011;10608;42.600;23.398;2023-06-26T03:48:58;133.40;;;126.97;;
20896;SDS011;10608;42.600;23.398;2023-06-26T03:51:24;156.80;;;149.13;;
20896;SDS011;10608;42.600;23.398;2023-06-26T03:53:49;143.87;;;136.63;;
20896;SDS011;10608;42.600;23.398;2023-06-26T03:56:14;116.27;;;110.90;;
20896;SDS011;10608;42.600;23.398;2023-06-26T03:58:39;96.40;;;91.60;;
20896;SDS011;10608;42.600;23.398;2023-06-26T04:01:05;100.93;;;96.20;;
20896;SDS011;10608;42.600;23.398;2023-06-26T04:03:30;134.10;;;127.97;;
20896;SDS011;10608;42.600;23.398;2023-06-26T04:05:56;159.10;;;151.87;;
20896;SDS011;10608;42.600;23.398;2023-06-26T04:08:23;164.00;;;156.27;;
20896;SDS011;10608;42.600;23.398;2023-06-26T04:10:48;133.17;;;126.70;;
20896;SDS011;10608;42.600;23.398;2023-06-26T04:13:14;122.43;;;116.33;;
20896;SDS011;10608;42.600;23.398;2023-06-26T04:15:39;130.80;;;124.50;;
20896;SDS011;10608;42.600;23.398;2023-06-26T04:18:04;156.27;;;149.13;;
20896;SDS011;10608;42.600;23.398;2023-06-26T04:20:30;129.13;;;123.00;;
20896;SDS011;10608;42.600;23.398;2023-06-26T04:22:55;80.97;;;76.97;;
20896;SDS011;10608;42.600;23.398;2023-06-26T04:25:20;77.53;;;73.70;;
20896;SDS011;10608;42.600;23.398;2023-06-26T04:27:46;49.03;;;46.63;;
20896;SDS011;10608;42.600;23.398;2023-06-26T04:30:11;49.43;;;47.03;;
20896;SDS011;10608;42.600;23.398;2023-06-26T04:32:37;39.20;;;36.87;;
20896;SDS011;10608;42.600;23.398;2023-06-26T04:35:02;35.00;;;33.10;;
20896;SDS011;10608;42.600;23.398;2023-06-26T04:37:28;40.10;;;38.03;;
20896;SDS011;10608;42.600;23.398;2023-06-26T04:39:53;37.43;;;35.47;;
20896;SDS011;10608;42.600;23.398;2023-06-26T04:42:18;44.80;;;42.20;;
20896;SDS011;10608;42.600;23.398;2023-06-26T04:44:46;57.03;;;54.33;;
20896;SDS011;10608;42.600;23.398;2023-06-26T04:47:11;37.53;;;35.23;;
20896;SDS011;10608;42.600;23.398;2023-06-26T04:49:39;27.83;;;26.27;;
20896;SDS011;10608;42.600;23.398;2023-06-26T04:52:08;31.53;;;29.83;;
20896;SDS011;10608;42.600;23.398;2023-06-26T04:54:33;43.87;;;41.67;;
20896;SDS011;10608;42.600;23.398;2023-06-26T04:56:58;44.73;;;42.43;;
20896;SDS011;10608;42.600;23.398;2023-06-26T04:59:24;31.93;;;30.13;;
20896;SDS011;10608;42.600;23.398;2023-06-26T05:01:50;47.13;;;44.73;;
20896;SDS011;10608;42.600;23.398;2023-06-26T05:04:15;49.80;;;47.27;;
20896;SDS011;10608;42.600;23.398;2023-06-26T05:06:41;51.63;;;49.13;;
20896;SDS011;10608;42.600;23.398;2023-06-26T05:09:06;30.50;;;28.83;;
20896;SDS011;10608;42.600;23.398;2023-06-26T05:11:32;47.00;;;44.60;;
20896;SDS011;10608;42.600;23.398;2023-06-26T05:13:57;43.90;;;41.50;;
20896;SDS011;10608;42.600;23.398;2023-06-26T05:16:22;54.30;;;51.57;;
20896;SDS011;10608;42.600;23.398;2023-06-26T05:18:47;34.23;;;32.53;;
20896;SDS011;10608;42.600;23.398;2023-06-26T05:21:13;27.43;;;26.00;;
20896;SDS011;10608;42.600;23.398;2023-06-26T05:23:38;50.47;;;47.77;;
20896;SDS011;10608;42.600;23.398;2023-06-26T05:26:04;54.40;;;51.80;;
20896;SDS011;10608;42.600;23.398;2023-06-26T05:28:29;91.13;;;86.57;;
20896;SDS011;10608;42.600;23.398;2023-06-26T05:30:56;48.37;;;45.73;;
20896;SDS011;10608;42.600;23.398;2023-06-26T05:33:23;35.97;;;33.90;;
20896;SDS011;10608;42.600;23.398;2023-06-26T05:35:48;36.93;;;34.73;;
20896;SDS011;10608;42.600;23.398;2023-06-26T05:38:13;32.07;;;30.17;;
20896;SDS011;10608;42.600;23.398;2023-06-26T05:40:39;41.10;;;38.87;;
20896;SDS011;10608;42.600;23.398;2023-06-26T05:43:05;83.10;;;79.30;;
20896;SDS011;10608;42.600;23.398;2023-06-26T05:45:31;119.23;;;113.83;;
20896;SDS011;10608;42.600;23.398;2023-06-26T05:47:56;75.57;;;72.00;;
20896;SDS011;10608;42.600;23.398;2023-06-26T05:50:21;62.33;;;59.43;;
20896;SDS011;10608;42.600;23.398;2023-06-26T05:52:46;49.80;;;47.30;;
20896;SDS011;10608;42.600;23.398;2023-06-26T05:55:12;42.90;;;40.03;;
20896;SDS011;10608;42.600;23.398;2023-06-26T05:57:37;47.77;;;45.37;;
20896;SDS011;10608;42.600;23.398;2023-06-26T06:00:05;33.53;;;31.67;;
20896;SDS011;10608;42.600;23.398;2023-06-26T06:02:35;41.77;;;39.67;;
20896;SDS011;10608;42.600;23.398;2023-06-26T06:05:01;36.47;;;34.67;;
20896;SDS011;10608;42.600;23.398;2023-06-26T06:07:26;46.83;;;44.47;;
20896;SDS011;10608;42.600;23.398;2023-06-26T06:09:51;42.97;;;40.80;;
20896;SDS011;10608;42.600;23.398;2023-06-26T06:12:17;43.77;;;41.67;;
20896;SDS011;10608;42.600;23.398;2023-06-26T06:14:42;26.20;;;24.80;;
20896;SDS011;10608;42.600;23.398;2023-06-26T06:17:07;36.57;;;34.73;;
20896;SDS011;10608;42.600;23.398;2023-06-26T06:19:32;35.70;;;33.70;;
20896;SDS011;10608;42.600;23.398;2023-06-26T06:21:57;43.23;;;40.93;;
20896;SDS011;10608;42.600;23.398;2023-06-26T06:24:23;35.27;;;33.33;;
20896;SDS011;10608;42.600;23.398;2023-06-26T06:26:48;42.40;;;40.30;;
20896;SDS011;10608;42.600;23.398;2023-06-26T06:29:13;65.40;;;62.40;;
20896;SDS011;10608;42.600;23.398;2023-06-26T06:31:38;42.50;;;40.20;;
20896;SDS011;10608;42.600;23.398;2023-06-26T06:34:04;40.73;;;38.53;;
20896;SDS011;10608;42.600;23.398;2023-06-26T06:36:29;37.83;;;35.83;;
20896;SDS011;10608;42.600;23.398;2023-06-26T06:38:54;30.57;;;28.87;;
20896;SDS011;10608;42.600;23.398;2023-06-26T06:41:19;33.70;;;32.00;;
20896;SDS011;10608;42.600;23.398;2023-06-26T06:43:45;28.50;;;27.00;;
20896;SDS011;10608;42.600;23.398;2023-06-26T06:46:10;37.87;;;36.00;;
20896;SDS011;10608;42.600;23.398;2023-06-26T06:48:35;41.97;;;39.77;;
20896;SDS011;10608;42.600;23.398;2023-06-26T06:51:01;31.10;;;29.57;;
20896;SDS011;10608;42.600;23.398;2023-06-26T06:53:27;30.97;;;29.27;;
20896;SDS011;10608;42.600;23.398;2023-06-26T06:55:52;26.30;;;24.90;;
20896;SDS011;10608;42.600;23.398;2023-06-26T06:58:17;24.70;;;23.30;;
20896;SDS011;10608;42.600;23.398;2023-06-26T07:00:44;42.67;;;40.53;;
20896;SDS011;10608;42.600;23.398;2023-06-26T07:03:09;30.03;;;28.53;;
20896;SDS011;10608;42.600;23.398;2023-06-26T07:05:35;28.37;;;26.77;;
20896;SDS011;10608;42.600;23.398;2023-06-26T07:08:00;42.37;;;40.20;;
20896;SDS011;10608;42.600;23.398;2023-06-26T07:10:26;40.90;;;38.87;;
20896;SDS011;10608;42.600;23.398;2023-06-26T07:12:51;36.47;;;34.70;;
20896;SDS011;10608;42.600;23.398;2023-06-26T07:15:16;41.93;;;39.73;;
20896;SDS011;10608;42.600;23.398;2023-06-26T07:17:41;32.67;;;31.07;;
20896;SDS011;10608;42.600;23.398;2023-06-26T07:20:07;22.40;;;21.27;;
20896;SDS011;10608;42.600;23.398;2023-06-26T07:22:33;17.63;;;16.63;;
20896;SDS011;10608;42.600;23.398;2023-06-26T07:24:59;16.93;;;16.03;;
20896;SDS011;10608;42.600;23.398;2023-06-26T07:27:24;17.83;;;16.63;;
20896;SDS011;10608;42.600;23.398;2023-06-26T07:29:50;17.63;;;16.60;;
20896;SDS011;10608;42.600;23.398;2023-06-26T07:32:15;22.93;;;21.83;;
20896;SDS011;10608;42.600;23.398;2023-06-26T07:34:40;23.20;;;22.10;;
20896;SDS011;10608;42.600;23.398;2023-06-26T07:37:06;33.90;;;32.23;;
20896;SDS011;10608;42.600;23.398;2023-06-26T07:39:32;21.60;;;20.57;;
20896;SDS011;10608;42.600;23.398;2023-06-26T07:41:57;24.83;;;23.63;;
20896;SDS011;10608;42.600;23.398;2023-06-26T07:44:25;21.57;;;20.57;;
20896;SDS011;10608;42.600;23.398;2023-06-26T07:46:50;19.20;;;18.27;;
20896;SDS011;10608;42.600;23.398;2023-06-26T07:49:16;12.47;;;11.87;;
20896;SDS011;10608;42.600;23.398;2023-06-26T07:51:41;13.17;;;12.33;;
20896;SDS011;10608;42.600;23.398;2023-06-26T07:54:06;12.73;;;12.13;;
20896;SDS011;10608;42.600;23.398;2023-06-26T07:56:35;14.10;;;13.40;;
20896;SDS011;10608;42.600;23.398;2023-06-26T07:59:00;12.47;;;11.60;;
20896;SDS011;10608;42.600;23.398;2023-06-26T08:01:29;14.67;;;13.87;;
20896;SDS011;10608;42.600;23.398;2023-06-26T08:03:54;16.50;;;15.60;;
20896;SDS011;10608;42.600;23.398;2023-06-26T08:06:19;14.30;;;13.60;;
20896;SDS011;10608;42.600;23.398;2023-06-26T08:08:45;13.70;;;12.93;;
20896;SDS011;10608;42.600;23.398;2023-06-26T08:11:10;10.53;;;9.93;;
20896;SDS011;10608;42.600;23.398;2023-06-26T08:13:35;13.70;;;12.90;;
20896;SDS011;10608;42.600;23.398;2023-06-26T08:16:00;13.03;;;12.43;;
20896;SDS011;10608;42.600;23.398;2023-06-26T08:18:25;11.83;;;11.23;;
20896;SDS011;10608;42.600;23.398;2023-06-26T08:20:51;15.57;;;14.87;;
20896;SDS011;10608;42.600;23.398;2023-06-26T08:23:16;14.40;;;13.77;;
20896;SDS011;10608;42.600;23.398;2023-06-26T08:25:41;11.60;;;11.00;;
20896;SDS011;10608;42.600;23.398;2023-06-26T08:28:06;11.53;;;10.93;;
20896;SDS011;10608;42.600;23.398;2023-06-26T08:30:32;13.30;;;12.50;;
20896;SDS011;10608;42.600;23.398;2023-06-26T08:32:57;10.17;;;9.67;;
20896;SDS011;10608;42.600;23.398;2023-06-26T08:35:23;11.40;;;10.90;;
20896;SDS011;10608;42.600;23.398;2023-06-26T08:37:48;12.20;;;11.60;;
20896;SDS011;10608;42.600;23.398;2023-06-26T08:40:14;12.67;;;11.97;;
20896;SDS011;10608;42.600;23.398;2023-06-26T08:42:41;14.00;;;13.30;;
20896;SDS011;10608;42.600;23.398;2023-06-26T08:45:06;11.63;;;11.03;;
20896;SDS011;10608;42.600;23.398;2023-06-26T08:47:32;10.97;;;10.47;;
20896;SDS011;10608;42.600;23.398;2023-06-26T08:52:28;15.60;;;14.70;;
20896;SDS011;10608;42.600;23.398;2023-06-26T08:54:56;15.00;;;14.20;;
20896;SDS011;10608;42.600;23.398;2023-06-26T08:57:22;13.67;;;13.03;;
20896;SDS011;10608;42.600;23.398;2023-06-26T08:59:48;12.13;;;11.33;;
20896;SDS011;10608;42.600;23.398;2023-06-26T09:02:13;15.07;;;14.27;;
20896;SDS011;10608;42.600;23.398;2023-06-26T09:04:39;13.50;;;12.90;;
20896;SDS011;10608;42.600;23.398;2023-06-26T09:07:05;17.40;;;16.53;;
20896;SDS011;10608;42.600;23.398;2023-06-26T09:09:30;12.17;;;11.37;;
20896;SDS011;10608;42.600;23.398;2023-06-26T09:11:55;14.10;;;13.40;;
20896;SDS011;10608;42.600;23.398;2023-06-26T09:14:21;14.87;;;14.17;;
20896;SDS011;10608;42.600;23.398;2023-06-26T09:16:46;11.13;;;10.53;;
20896;SDS011;10608;42.600;23.398;2023-06-26T09:19:12;14.63;;;13.83;;
20896;SDS011;10608;42.600;23.398;2023-06-26T09:21:41;16.07;;;15.30;;
20896;SDS011;10608;42.600;23.398;2023-06-26T09:24:09;14.20;;;13.40;;
20896;SDS011;10608;42.600;23.398;2023-06-26T09:26:35;12.97;;;12.17;;
20896;SDS011;10608;42.600;23.398;2023-06-26T09:29:01;13.87;;;13.17;;
20896;SDS011;10608;42.600;23.398;2023-06-26T09:31:27;19.67;;;18.77;;
20896;SDS011;10608;42.600;23.398;2023-06-26T09:33:55;15.20;;;14.47;;
20896;SDS011;10608;42.600;23.398;2023-06-26T09:36:22;14.77;;;14.07;;
20896;SDS011;10608;42.600;23.398;2023-06-26T09:38:48;14.70;;;14.00;;
20896;SDS011;10608;42.600;23.398;2023-06-26T09:41:19;15.20;;;14.50;;
20896;SDS011;10608;42.600;23.398;2023-06-26T09:43:45;20.03;;;19.13;;
20896;SDS011;10608;42.600;23.398;2023-06-26T09:46:14;13.53;;;12.73;;
20896;SDS011;10608;42.600;23.398;2023-06-26T09:48:40;13.07;;;12.47;;
20896;SDS011;10608;42.600;23.398;2023-06-26T09:51:05;11.37;;;10.77;;
20896;SDS011;10608;42.600;23.398;2023-06-26T09:53:30;10.60;;;10.00;;
20896;SDS011;10608;42.600;23.398;2023-06-26T09:56:01;11.10;;;10.50;;
20896;SDS011;10608;42.600;23.398;2023-06-26T09:58:29;11.80;;;11.00;;
20896;SDS011;10608;42.600;23.398;2023-06-26T10:00:55;13.60;;;12.70;;
20896;SDS011;10608;42.600;23.398;2023-06-26T10:03:20;14.60;;;13.90;;
20896;SDS011;10608;42.600;23.398;2023-06-26T10:05:45;9.90;;;9.40;;
20896;SDS011;10608;42.600;23.398;2023-06-26T10:08:11;22.27;;;21.17;;
20896;SDS011;10608;42.600;23.398;2023-06-26T10:10:39;13.60;;;12.90;;
20896;SDS011;10608;42.600;23.398;2023-06-26T10:13:11;11.37;;;10.77;;
20896;SDS011;10608;42.600;23.398;2023-06-26T10:15:36;18.23;;;17.33;;
20896;SDS011;10608;42.600;23.398;2023-06-26T10:18:01;23.07;;;22.07;;
20896;SDS011;10608;42.600;23.398;2023-06-26T10:20:27;15.27;;;14.47;;
20896;SDS011;10608;42.600;23.398;2023-06-26T10:22:52;22.67;;;21.57;;
20896;SDS011;10608;42.600;23.398;2023-06-26T10:25:20;28.37;;;27.10;;
20896;SDS011;10608;42.600;23.398;2023-06-26T10:27:56;16.40;;;15.40;;
20896;SDS011;10608;42.600;23.398;2023-06-26T10:30:29;31.87;;;30.37;;
20896;SDS011;10608;42.600;23.398;2023-06-26T10:32:56;18.20;;;17.40;;
20896;SDS011;10608;42.600;23.398;2023-06-26T10:35:21;15.20;;;14.40;;
20896;SDS011;10608;42.600;23.398;2023-06-26T10:37:47;95.53;;;91.53;;
20896;SDS011;10608;42.600;23.398;2023-06-26T10:40:14;30.03;;;28.77;;
20896;SDS011;10608;42.600;23.398;2023-06-26T10:42:39;33.27;;;31.67;;
20896;SDS011;10608;42.600;23.398;2023-06-26T10:45:23;19.63;;;18.73;;
20896;SDS011;10608;42.600;23.398;2023-06-26T10:47:52;35.70;;;34.07;;
20896;SDS011;10608;42.600;23.398;2023-06-26T10:53:07;24.80;;;23.50;;
20896;SDS011;10608;42.600;23.398;2023-06-26T10:55:31;29.73;;;28.33;;
20896;SDS011;10608;42.600;23.398;2023-06-26T10:57:57;36.57;;;34.83;;
20896;SDS011;10608;42.600;23.398;2023-06-26T11:00:22;18.10;;;17.20;;
20896;SDS011;10608;42.600;23.398;2023-06-26T11:02:50;15.17;;;14.37;;
20896;SDS011;10608;42.600;23.398;2023-06-26T11:05:28;20.37;;;19.43;;
20896;SDS011;10608;42.600;23.398;2023-06-26T11:10:28;21.37;;;20.27;;
20896;SDS011;10608;42.600;23.398;2023-06-26T11:12:53;20.40;;;19.40;;
20896;SDS011;10608;42.600;23.398;2023-06-26T11:15:19;30.43;;;28.93;;
20896;SDS011;10608;42.600;23.398;2023-06-26T11:17:45;27.03;;;25.70;;
20896;SDS011;10608;42.600;23.398;2023-06-26T11:20:13;26.23;;;24.83;;
20896;SDS011;10608;42.600;23.398;2023-06-26T11:22:40;27.57;;;26.23;;
20896;SDS011;10608;42.600;23.398;2023-06-26T11:25:05;54.30;;;51.73;;
20896;SDS011;10608;42.600;23.398;2023-06-26T11:27:52;44.40;;;42.40;;
20896;SDS011;10608;42.600;23.398;2023-06-26T11:30:23;37.80;;;36.07;;
20896;SDS011;10608;42.600;23.398;2023-06-26T11:32:48;69.90;;;66.83;;
20896;SDS011;10608;42.600;23.398;2023-06-26T11:35:21;45.53;;;43.53;;
20896;SDS011;10608;42.600;23.398;2023-06-26T11:37:48;17.87;;;16.93;;
20896;SDS011;10608;42.600;23.398;2023-06-26T11:40:17;18.93;;;18.03;;
20896;SDS011;10608;42.600;23.398;2023-06-26T11:42:42;28.43;;;27.17;;
20896;SDS011;10608;42.600;23.398;2023-06-26T11:45:08;61.37;;;58.60;;
20896;SDS011;10608;42.600;23.398;2023-06-26T11:47:34;62.33;;;59.63;;
20896;SDS011;10608;42.600;23.398;2023-06-26T11:49:59;47.57;;;45.37;;
20896;SDS011;10608;42.600;23.398;2023-06-26T11:52:29;50.23;;;47.70;;
20896;SDS011;10608;42.600;23.398;2023-06-26T11:54:54;53.50;;;51.17;;
20896;SDS011;10608;42.600;23.398;2023-06-26T11:57:19;48.60;;;46.47;;
20896;SDS011;10608;42.600;23.398;2023-06-26T11:59:45;70.47;;;67.53;;
20896;SDS011;10608;42.600;23.398;2023-06-26T12:02:11;64.03;;;61.23;;
20896;SDS011;10608;42.600;23.398;2023-06-26T12:04:38;78.77;;;75.40;;
20896;SDS011;10608;42.600;23.398;2023-06-26T12:07:05;54.13;;;51.77;;
20896;SDS011;10608;42.600;23.398;2023-06-26T12:09:33;40.50;;;38.33;;
20896;SDS011;10608;42.600;23.398;2023-06-26T12:11:58;30.87;;;29.50;;
20896;SDS011;10608;42.600;23.398;2023-06-26T12:14:24;39.83;;;38.03;;
20896;SDS011;10608;42.600;23.398;2023-06-26T12:16:50;60.20;;;57.53;;
20896;SDS011;10608;42.600;23.398;2023-06-26T12:19:15;59.23;;;56.70;;
20896;SDS011;10608;42.600;23.398;2023-06-26T12:24:07;91.33;;;87.43;;
20896;SDS011;10608;42.600;23.398;2023-06-26T12:26:33;88.70;;;84.93;;
20896;SDS011;10608;42.600;23.398;2023-06-26T12:29:17;85.57;;;81.90;;
20896;SDS011;10608;42.600;23.398;2023-06-26T12:31:43;68.23;;;65.17;;
20896;SDS011;10608;42.600;23.398;2023-06-26T12:34:10;74.83;;;71.63;;
20896;SDS011;10608;42.600;23.398;2023-06-26T12:36:39;35.23;;;33.63;;
20896;SDS011;10608;42.600;23.398;2023-06-26T12:39:05;48.53;;;46.43;;
20896;SDS011;10608;42.600;23.398;2023-06-26T12:41:30;71.67;;;68.57;;
20896;SDS011;10608;42.600;23.398;2023-06-26T12:43:55;74.80;;;71.33;;
20896;SDS011;10608;42.600;23.398;2023-06-26T12:46:32;69.53;;;66.60;;
20896;SDS011;10608;42.600;23.398;2023-06-26T12:48:57;45.10;;;43.10;;
20896;SDS011;10608;42.600;23.398;2023-06-26T12:51:23;39.80;;;38.07;;
20896;SDS011;10608;42.600;23.398;2023-06-26T12:53:51;48.70;;;46.53;;
20896;SDS011;10608;42.600;23.398;2023-06-26T12:56:17;54.30;;;51.93;;
20896;SDS011;10608;42.600;23.398;2023-06-26T12:58:42;21.40;;;20.37;;
20896;SDS011;10608;42.600;23.398;2023-06-26T13:01:07;22.53;;;21.13;;
20896;SDS011;10608;42.600;23.398;2023-06-26T13:03:38;21.97;;;20.97;;
20896;SDS011;10608;42.600;23.398;2023-06-26T13:06:03;26.67;;;25.33;;
20896;SDS011;10608;42.600;23.398;2023-06-26T13:08:29;21.10;;;20.07;;
20896;SDS011;10608;42.600;23.398;2023-06-26T13:10:54;22.73;;;21.67;;
20896;SDS011;10608;42.600;23.398;2023-06-26T13:13:19;21.97;;;20.93;;
20896;SDS011;10608;42.600;23.398;2023-06-26T13:15:44;46.90;;;44.80;;
20896;SDS011;10608;42.600;23.398;2023-06-26T13:18:10;79.33;;;75.93;;
20896;SDS011;10608;42.600;23.398;2023-06-26T13:20:35;70.20;;;67.20;;
20896;SDS011;10608;42.600;23.398;2023-06-26T13:23:00;51.47;;;48.70;;
20896;SDS011;10608;42.600;23.398;2023-06-26T13:25:25;20.57;;;19.57;;
20896;SDS011;10608;42.600;23.398;2023-06-26T13:27:51;35.17;;;33.40;;
20896;SDS011;10608;42.600;23.398;2023-06-26T13:30:16;35.13;;;33.50;;
20896;SDS011;10608;42.600;23.398;2023-06-26T13:32:41;35.77;;;34.17;;
20896;SDS011;10608;42.600;23.398;2023-06-26T13:35:07;36.20;;;34.50;;
20896;SDS011;10608;42.600;23.398;2023-06-26T13:37:33;43.50;;;41.37;;
20896;SDS011;10608;42.600;23.398;2023-06-26T13:39:59;54.03;;;51.63;;
20896;SDS011;10608;42.600;23.398;2023-06-26T13:42:24;28.97;;;27.63;;
20896;SDS011;10608;42.600;23.398;2023-06-26T13:44:50;20.30;;;19.30;;
20896;SDS011;10608;42.600;23.398;2023-06-26T13:50:09;20.70;;;19.60;;
20896;SDS011;10608;42.600;23.398;2023-06-26T13:52:35;21.77;;;20.60;;
20896;SDS011;10608;42.600;23.398;2023-06-26T13:55:00;18.73;;;17.73;;
20896;SDS011;10608;42.600;23.398;2023-06-26T13:57:26;15.50;;;14.70;;
20896;SDS011;10608;42.600;23.398;2023-06-26T13:59:52;15.10;;;14.30;;
20896;SDS011;10608;42.600;23.398;2023-06-26T14:02:17;19.77;;;18.87;;
20896;SDS011;10608;42.600;23.398;2023-06-26T14:04:43;21.07;;;19.97;;
20896;SDS011;10608;42.600;23.398;2023-06-26T14:07:08;17.93;;;16.93;;
20896;SDS011;10608;42.600;23.398;2023-06-26T14:09:34;16.17;;;15.33;;
20896;SDS011;10608;42.600;23.398;2023-06-26T14:11:59;15.37;;;14.57;;
20896;SDS011;10608;42.600;23.398;2023-06-26T14:14:24;14.87;;;14.07;;
20896;SDS011;10608;42.600;23.398;2023-06-26T14:16:50;17.27;;;16.37;;
20896;SDS011;10608;42.600;23.398;2023-06-26T14:19:15;21.63;;;20.43;;